Time;durP1;ratioP1;P1;durP2;ratioP2;P2;SDS_P1;SDS_P2;PMS_P1;PMS_P2;Temp;Humidity;BMP_temperature;BMP_pressure;BME280_temperature;BME280_humidity;BME280_pressure;Samples;Min_cycle;Max_cycle;Signal;HPM_P1;HPM_P2
2021/10/29 00:00:15;;;;;;;18.77;10.20;;;7.60;99.90;7.40;100666.00;;;;4937384;28;87716;-67
2021/10/29 00:02:41;;;;;;;15.33;10.33;;;7.60;99.90;7.40;100660.00;;;;4937542;28;90718;-67
2021/10/29 00:05:08;;;;;;;13.20;10.13;;;7.60;99.90;7.40;100656.00;;;;4935153;28;102922;-67
2021/10/29 00:07:34;;;;;;;17.43;9.73;;;7.50;99.90;7.40;100658.00;;;;4936062;28;111546;-67
2021/10/29 00:10:00;;;;;;;15.40;10.17;;;7.50;99.90;7.40;100655.00;;;;4936762;28;95582;-68
2021/10/29 00:12:26;;;;;;;13.60;10.03;;;7.50;99.90;7.40;100655.00;;;;4936850;28;88767;-67
2021/10/29 00:14:52;;;;;;;14.67;10.90;;;7.50;99.90;7.30;100662.00;;;;4937092;28;87809;-68
2021/10/29 00:17:20;;;;;;;17.83;11.20;;;7.40;99.90;7.30;100663.00;;;;4936673;28;87879;-68
2021/10/29 00:19:46;;;;;;;17.50;9.77;;;7.40;99.90;7.30;100663.00;;;;4951400;28;87999;-68
2021/10/29 00:22:11;;;;;;;13.23;9.10;;;7.40;99.90;7.20;100663.00;;;;4952176;28;87954;-68
2021/10/29 00:24:37;;;;;;;14.93;9.83;;;7.40;99.90;7.20;100655.00;;;;4936159;28;104532;-67
2021/10/29 00:27:04;;;;;;;11.53;8.93;;;7.30;99.90;7.10;100657.00;;;;4937117;28;94627;-68
2021/10/29 00:29:29;;;;;;;14.70;10.27;;;7.30;99.90;7.00;100656.00;;;;4936583;28;88515;-68
2021/10/29 00:31:55;;;;;;;15.10;10.17;;;7.20;99.90;7.00;100647.00;;;;4950106;28;117501;-68
2021/10/29 00:34:21;;;;;;;16.50;10.80;;;7.20;99.90;7.00;100658.00;;;;4936097;28;100349;-68
2021/10/29 00:36:48;;;;;;;20.50;9.93;;;7.20;99.90;7.00;100652.00;;;;4933910;28;88058;-68
2021/10/29 00:39:14;;;;;;;15.47;10.07;;;7.10;99.90;7.00;100651.00;;;;4937325;28;87808;-68
2021/10/29 00:41:40;;;;;;;14.53;10.60;;;7.10;99.90;7.00;100648.00;;;;4936359;28;89050;-67
2021/10/29 00:44:06;;;;;;;13.17;8.63;;;7.10;99.90;7.00;100655.00;;;;4935949;28;88723;-68
2021/10/29 00:46:32;;;;;;;12.80;9.83;;;7.10;99.90;7.00;100650.00;;;;4936878;28;101069;-68
2021/10/29 00:48:57;;;;;;;15.03;10.07;;;7.00;99.90;7.00;100654.00;;;;4951583;28;87745;-69
2021/10/29 00:51:24;;;;;;;13.33;9.73;;;7.10;99.90;6.90;100641.00;;;;4950600;28;88397;-68
2021/10/29 00:53:50;;;;;;;12.03;9.00;;;7.00;99.90;7.00;100634.00;;;;4936502;28;89213;-68
2021/10/29 00:56:17;;;;;;;13.20;9.67;;;7.10;99.90;7.00;100636.00;;;;4936390;28;95771;-67
2021/10/29 00:58:43;;;;;;;13.00;10.30;;;7.10;99.90;7.00;100635.00;;;;4951761;28;87989;-67
2021/10/29 01:01:09;;;;;;;16.10;10.43;;;7.10;99.90;7.10;100632.00;;;;4935230;28;105069;-68
2021/10/29 01:03:40;;;;;;;16.20;11.43;;;7.10;99.90;7.10;100633.00;;;;4934861;28;103875;-66
2021/10/29 01:06:07;;;;;;;12.73;9.87;;;7.20;99.90;7.10;100618.00;;;;4949598;28;99134;-67
2021/10/29 01:08:34;;;;;;;14.37;9.77;;;7.20;99.90;7.20;100629.00;;;;4950527;28;91151;-68
2021/10/29 01:11:02;;;;;;;13.13;9.80;;;7.20;99.90;7.30;100626.00;;;;4936684;28;87505;-68
2021/10/29 01:13:28;;;;;;;16.40;11.37;;;7.30;99.90;7.30;100627.00;;;;4936158;28;105942;-67
2021/10/29 01:15:57;;;;;;;15.40;10.33;;;7.40;99.90;7.40;100615.00;;;;4935375;28;87880;-68
2021/10/29 01:18:23;;;;;;;14.43;9.23;;;7.40;99.90;7.50;100610.00;;;;4933917;28;89000;-67
2021/10/29 01:20:49;;;;;;;13.37;10.07;;;7.50;99.90;7.50;100622.00;;;;4917054;28;108456;-68
2021/10/29 01:23:14;;;;;;;12.50;9.60;;;7.50;99.90;7.60;100617.00;;;;4915688;28;94438;-68
2021/10/29 01:25:40;;;;;;;15.47;9.77;;;7.60;99.90;7.60;100616.00;;;;4932447;28;89703;-67
2021/10/29 01:28:11;;;;;;;14.63;9.40;;;7.60;99.90;7.60;100625.00;;;;4935320;28;109479;-68
2021/10/29 01:30:37;;;;;;;17.10;10.67;;;7.70;99.90;7.70;100624.00;;;;4936736;28;87948;-67
2021/10/29 01:33:03;;;;;;;15.90;9.23;;;7.70;99.90;7.70;100610.00;;;;4949959;28;92874;-67
2021/10/29 01:35:28;;;;;;;17.83;10.77;;;7.80;99.90;7.80;100611.00;;;;4935726;28;113116;-68
2021/10/29 01:37:54;;;;;;;17.87;10.10;;;7.80;99.90;7.80;100614.00;;;;4935494;28;87861;-68
2021/10/29 01:40:20;;;;;;;14.93;10.83;;;7.80;99.90;7.80;100617.00;;;;4935462;28;93008;-68
2021/10/29 01:42:49;;;;;;;12.27;9.47;;;7.80;99.90;7.80;100607.00;;;;4933160;28;117282;-67
2021/10/29 01:45:16;;;;;;;15.27;10.47;;;7.80;99.90;7.80;100609.00;;;;4935553;28;114634;-67
2021/10/29 01:47:41;;;;;;;19.03;11.13;;;7.80;99.90;7.80;100594.00;;;;4935771;28;87755;-68
2021/10/29 01:50:09;;;;;;;14.60;9.47;;;7.80;99.90;7.70;100602.00;;;;4934540;28;117017;-68
2021/10/29 01:52:35;;;;;;;13.67;10.37;;;7.80;99.90;7.70;100593.00;;;;4935567;28;88459;-67
2021/10/29 01:55:06;;;;;;;13.37;10.57;;;7.80;99.90;7.60;100596.00;;;;4949746;28;97913;-68
2021/10/29 01:57:31;;;;;;;13.67;9.50;;;7.70;99.90;7.60;100588.00;;;;4935364;28;87690;-68
2021/10/29 01:59:57;;;;;;;18.13;11.53;;;7.70;99.90;7.60;100589.00;;;;4935430;28;117724;-69
2021/10/29 02:02:23;;;;;;;18.50;11.03;;;7.70;99.90;7.50;100580.00;;;;4934285;28;100904;-67
2021/10/29 02:04:49;;;;;;;13.63;10.30;;;7.60;99.90;7.50;100578.00;;;;4951462;28;87806;-68
2021/10/29 02:07:14;;;;;;;11.93;10.17;;;7.70;99.90;7.50;100590.00;;;;4936939;28;108566;-67
2021/10/29 02:09:40;;;;;;;17.60;11.83;;;7.60;99.90;7.40;100589.00;;;;4937721;28;117005;-67
2021/10/29 02:12:06;;;;;;;20.10;10.10;;;7.60;99.90;7.30;100589.00;;;;4938071;28;88725;-67
2021/10/29 02:14:32;;;;;;;18.87;10.50;;;7.50;99.90;7.30;100583.00;;;;4938371;28;101647;-69
2021/10/29 02:16:58;;;;;;;22.87;11.40;;;7.50;99.90;7.20;100582.00;;;;4938735;28;87961;-69
2021/10/29 02:19:24;;;;;;;21.00;8.87;;;7.40;99.90;7.20;100580.00;;;;4937377;28;116683;-69
2021/10/29 02:21:49;;;;;;;17.30;11.27;;;7.30;99.90;7.10;100576.00;;;;4937971;28;116804;-68
2021/10/29 02:24:15;;;;;;;16.07;10.10;;;7.40;99.90;7.10;100583.00;;;;4939351;28;87017;-67
2021/10/29 02:26:41;;;;;;;13.07;9.27;;;7.20;99.90;7.00;100568.00;;;;4937928;28;109303;-67
2021/10/29 02:29:07;;;;;;;16.77;11.97;;;7.10;99.90;7.00;100583.00;;;;4939236;28;88058;-66
2021/10/29 02:31:33;;;;;;;16.27;10.97;;;7.10;99.90;7.00;100578.00;;;;4938354;28;88528;-68
2021/10/29 02:33:59;;;;;;;20.30;11.60;;;7.10;99.90;6.90;100577.00;;;;4938042;28;87893;-67
2021/10/29 02:36:24;;;;;;;12.77;10.63;;;7.10;99.90;6.90;100568.00;;;;4938481;28;87955;-66
2021/10/29 02:38:50;;;;;;;18.33;11.57;;;7.00;99.90;7.00;100572.00;;;;4937393;28;98394;-67
2021/10/29 02:41:16;;;;;;;16.63;10.20;;;7.00;99.90;6.90;100568.00;;;;4937471;28;117802;-67
2021/10/29 02:43:44;;;;;;;17.03;11.10;;;7.00;99.90;6.90;100572.00;;;;4938392;28;87962;-67
2021/10/29 02:46:10;;;;;;;16.57;11.50;;;7.10;99.90;6.90;100574.00;;;;4953459;28;87740;-66
2021/10/29 02:48:36;;;;;;;15.30;11.37;;;7.00;99.90;6.80;100575.00;;;;4938112;28;87447;-67
2021/10/29 02:51:01;;;;;;;13.27;9.93;;;7.00;99.90;6.70;100573.00;;;;4937102;28;116552;-67
2021/10/29 02:53:30;;;;;;;15.90;10.90;;;6.90;99.90;6.70;100567.00;;;;4938547;28;87825;-67
2021/10/29 02:55:56;;;;;;;13.90;10.63;;;6.80;99.90;6.70;100577.00;;;;4937504;28;88681;-68
2021/10/29 02:58:22;;;;;;;11.60;9.97;;;6.80;99.90;6.70;100586.00;;;;4952153;28;90399;-67
2021/10/29 03:00:47;;;;;;;14.70;9.97;;;6.80;99.90;6.60;100583.00;;;;4938274;28;87773;-66
2021/10/29 03:03:13;;;;;;;15.17;11.23;;;6.80;99.90;6.60;100589.00;;;;4936683;28;113789;-66
2021/10/29 03:05:41;;;;;;;15.80;10.20;;;6.70;99.90;6.60;100593.00;;;;4937245;28;109238;-66
2021/10/29 03:08:07;;;;;;;17.50;11.10;;;6.70;99.90;6.50;100581.00;;;;4918059;28;88834;-67
2021/10/29 03:10:33;;;;;;;22.47;12.33;;;6.70;99.90;6.50;100575.00;;;;4931747;28;103354;-67
2021/10/29 03:12:59;;;;;;;16.40;12.13;;;6.60;99.90;6.50;100570.00;;;;4937657;28;87059;-67
2021/10/29 03:15:25;;;;;;;19.17;11.87;;;6.60;99.90;6.50;100586.00;;;;4934828;28;102415;-67
2021/10/29 03:17:50;;;;;;;21.00;11.57;;;6.60;99.90;6.50;100570.00;;;;4936357;28;117074;-68
2021/10/29 03:20:16;;;;;;;20.03;12.23;;;6.60;99.90;6.50;100570.00;;;;4937051;28;88926;-69
2021/10/29 03:22:42;;;;;;;17.40;11.03;;;6.60;99.90;6.40;100570.00;;;;4935630;28;87795;-68
2021/10/29 03:25:08;;;;;;;18.23;11.40;;;6.60;99.90;6.40;100586.00;;;;4937822;28;87763;-68
2021/10/29 03:27:35;;;;;;;16.67;10.07;;;6.60;99.90;6.40;100583.00;;;;4937206;28;88476;-67
2021/10/29 03:30:02;;;;;;;17.87;10.20;;;6.50;99.90;6.30;100575.00;;;;4937300;28;88607;-67
2021/10/29 03:32:27;;;;;;;20.17;11.63;;;6.40;99.90;6.20;100570.00;;;;4936669;28;87810;-70
2021/10/29 03:34:53;;;;;;;15.27;10.40;;;6.40;99.90;6.20;100580.00;;;;4936882;28;109309;-68
2021/10/29 03:38:00;;;;;;;17.03;11.17;;;6.30;99.90;6.10;100578.00;;;;4936490;28;110750;-67
2021/10/29 03:43:00;;;;;;;17.67;11.67;;;6.30;99.90;6.10;100577.00;;;;4936600;28;87887;-66
2021/10/29 03:45:25;;;;;;;18.30;11.33;;;6.20;99.90;6.10;100579.00;;;;4936748;28;88710;-67
2021/10/29 03:47:55;;;;;;;17.10;12.63;;;6.20;99.90;6.10;100567.00;;;;4936320;28;117866;-67
2021/10/29 03:50:24;;;;;;;19.87;12.50;;;6.20;99.90;6.10;100565.00;;;;4937438;28;87733;-67
2021/10/29 03:53:03;;;;;;;15.87;11.77;;;6.20;99.90;6.10;100572.00;;;;4936831;28;87939;-69
2021/10/29 03:55:35;;;;;;;14.73;11.57;;;6.20;99.90;6.00;100567.00;;;;4937550;28;87730;-69
2021/10/29 03:58:01;;;;;;;17.07;12.03;;;6.20;99.90;6.00;100581.00;;;;4936373;28;88403;-69
2021/10/29 04:00:29;;;;;;;18.83;12.63;;;6.10;99.90;6.00;100569.00;;;;4936730;28;88606;-69
2021/10/29 04:03:03;;;;;;;18.87;13.10;;;6.10;99.90;5.90;100568.00;;;;4937280;28;87079;-69
2021/10/29 04:05:32;;;;;;;17.63;12.90;;;6.10;99.90;5.90;100577.00;;;;4951235;28;88263;-68
2021/10/29 04:07:58;;;;;;;21.03;12.87;;;6.10;99.90;5.80;100568.00;;;;4935777;28;101621;-67
2021/10/29 04:10:26;;;;;;;22.40;12.73;;;6.00;99.90;5.80;100574.00;;;;4935473;28;99865;-67
2021/10/29 04:12:54;;;;;;;17.60;12.90;;;6.00;99.90;5.80;100578.00;;;;4936555;28;87866;-68
2021/10/29 04:15:21;;;;;;;17.60;13.07;;;5.90;99.90;5.80;100568.00;;;;4951840;28;87925;-69
2021/10/29 04:17:47;;;;;;;16.97;13.33;;;5.90;99.90;5.80;100566.00;;;;4936499;28;88860;-67
2021/10/29 04:20:14;;;;;;;20.20;14.47;;;5.90;99.90;5.80;100570.00;;;;4936239;28;88314;-68
2021/10/29 04:22:40;;;;;;;16.73;13.33;;;6.00;99.90;5.90;100568.00;;;;4936954;28;87776;-69
2021/10/29 04:25:06;;;;;;;16.03;12.03;;;6.00;99.90;5.90;100569.00;;;;4950743;28;92155;-68
2021/10/29 04:27:35;;;;;;;17.90;13.13;;;6.00;99.90;5.90;100571.00;;;;4936337;28;87695;-68
2021/10/29 04:30:02;;;;;;;18.87;11.80;;;6.00;99.90;5.80;100561.00;;;;4936604;28;87895;-69
2021/10/29 04:32:28;;;;;;;17.83;12.77;;;6.00;99.90;5.90;100572.00;;;;4935856;28;88059;-68
2021/10/29 04:34:53;;;;;;;24.37;13.20;;;6.00;99.90;5.80;100571.00;;;;4935472;28;109948;-68
2021/10/29 04:37:19;;;;;;;19.90;11.70;;;6.00;99.90;5.80;100563.00;;;;4934732;28;118993;-68
2021/10/29 04:39:47;;;;;;;19.53;13.13;;;5.90;99.90;5.90;100572.00;;;;4936167;28;92475;-68
2021/10/29 04:42:13;;;;;;;21.70;14.93;;;6.00;99.90;5.90;100563.00;;;;4936145;28;87825;-68
2021/10/29 04:44:39;;;;;;;21.07;13.43;;;6.00;99.90;5.90;100557.00;;;;4936662;28;87857;-68
2021/10/29 04:47:04;;;;;;;18.03;12.27;;;6.00;99.90;5.80;100555.00;;;;4936475;28;88852;-68
2021/10/29 04:49:30;;;;;;;17.70;13.13;;;6.30;99.90;5.80;100553.00;;;;4934723;28;117581;-68
2021/10/29 04:51:58;;;;;;;20.50;13.10;;;5.90;99.90;5.70;100554.00;;;;4935956;28;112458;-69
2021/10/29 04:54:24;;;;;;;18.47;13.17;;;5.90;99.90;5.70;100549.00;;;;4936524;28;87970;-68
2021/10/29 04:56:51;;;;;;;20.37;13.93;;;5.90;99.90;5.70;100551.00;;;;4950878;28;87823;-66
2021/10/29 04:59:18;;;;;;;22.80;14.13;;;5.90;99.90;5.70;100554.00;;;;4935426;28;89149;-69
2021/10/29 05:01:46;;;;;;;21.73;13.47;;;5.90;99.90;5.70;100541.00;;;;4936235;28;87808;-67
2021/10/29 05:04:16;;;;;;;16.93;12.43;;;5.80;99.90;5.70;100548.00;;;;4934891;28;89275;-67
2021/10/29 05:06:42;;;;;;;22.27;14.57;;;5.80;99.90;5.70;100551.00;;;;4936525;28;88145;-67
2021/10/29 05:09:08;;;;;;;20.37;13.70;;;5.80;99.90;5.70;100551.00;;;;4934671;28;114431;-68
2021/10/29 05:11:34;;;;;;;28.27;14.63;;;5.90;99.90;5.80;100552.00;;;;4935718;28;88040;-68
2021/10/29 05:14:00;;;;;;;22.50;13.73;;;5.90;99.90;5.80;100539.00;;;;4951241;28;87726;-67
2021/10/29 05:16:26;;;;;;;20.17;13.13;;;5.90;99.90;5.80;100554.00;;;;4934686;28;114950;-68
2021/10/29 05:18:52;;;;;;;20.73;15.13;;;5.90;99.90;5.80;100554.00;;;;4935746;28;87902;-68
2021/10/29 05:21:17;;;;;;;20.27;13.70;;;5.90;99.90;5.90;100557.00;;;;4935268;28;111034;-71
2021/10/29 05:23:43;;;;;;;18.37;13.00;;;6.00;99.90;5.90;100556.00;;;;4934388;28;109287;-68
2021/10/29 05:26:09;;;;;;;19.60;13.13;;;6.00;99.90;5.90;100557.00;;;;4935909;28;88165;-67
2021/10/29 05:28:35;;;;;;;21.80;14.93;;;6.00;99.90;5.90;100559.00;;;;4935101;28;98980;-67
2021/10/29 05:31:01;;;;;;;25.93;14.87;;;6.00;99.90;5.90;100561.00;;;;4936029;28;87910;-67
2021/10/29 05:33:27;;;;;;;19.00;13.67;;;6.00;99.90;6.00;100553.00;;;;4934917;28;109013;-67
2021/10/29 05:35:54;;;;;;;19.33;13.30;;;6.10;99.90;6.00;100554.00;;;;4935166;28;88752;-68
2021/10/29 05:38:20;;;;;;;25.33;15.53;;;6.20;99.90;6.00;100550.00;;;;4933991;28;117843;-66
2021/10/29 05:40:46;;;;;;;20.67;14.43;;;6.20;99.90;6.10;100540.00;;;;4935786;28;87024;-67
2021/10/29 05:43:11;;;;;;;21.67;13.70;;;6.20;99.90;6.20;100547.00;;;;4935326;28;88430;-67
2021/10/29 05:45:37;;;;;;;17.87;13.57;;;6.20;99.90;6.20;100546.00;;;;4934985;28;88796;-68
2021/10/29 05:48:06;;;;;;;20.10;13.87;;;6.30;99.90;6.30;100541.00;;;;4933361;28;117389;-67
2021/10/29 05:50:33;;;;;;;24.17;15.80;;;6.30;99.90;6.30;100549.00;;;;4934876;28;87839;-68
2021/10/29 05:53:02;;;;;;;19.93;13.63;;;6.40;99.90;6.30;100543.00;;;;4935716;28;88037;-67
2021/10/29 05:55:28;;;;;;;19.63;13.83;;;6.40;99.90;6.30;100543.00;;;;4934892;28;88089;-67
2021/10/29 05:57:54;;;;;;;18.27;13.80;;;6.40;99.90;6.30;100541.00;;;;4933919;28;103822;-67
2021/10/29 06:00:27;;;;;;;23.67;14.30;;;6.40;99.90;6.40;100546.00;;;;4935014;28;87945;-67
2021/10/29 06:02:53;;;;;;;20.87;14.90;;;6.40;99.90;6.30;100554.00;;;;4935003;28;98353;-66
2021/10/29 06:05:19;;;;;;;22.90;14.77;;;6.50;99.90;6.30;100570.00;;;;4935277;28;87898;-67
2021/10/29 06:07:46;;;;;;;21.37;14.33;;;6.40;99.90;6.30;100556.00;;;;4935404;28;87842;-68
2021/10/29 06:10:14;;;;;;;22.50;14.23;;;6.50;99.90;6.30;100555.00;;;;4934471;28;87802;-67
2021/10/29 06:12:43;;;;;;;19.07;13.23;;;6.40;99.90;6.30;100558.00;;;;4935122;28;88856;-68
2021/10/29 06:15:10;;;;;;;21.07;14.53;;;6.40;99.90;6.20;100560.00;;;;4915384;28;88574;-68
2021/10/29 06:17:36;;;;;;;20.37;13.23;;;6.30;99.90;6.20;100559.00;;;;4897323;28;89244;-67
2021/10/29 06:20:04;;;;;;;22.17;13.83;;;6.30;99.90;6.20;100558.00;;;;4925791;28;87951;-68
2021/10/29 06:22:34;;;;;;;18.37;14.10;;;6.30;99.90;6.10;100567.00;;;;4934251;28;94064;-67
2021/10/29 06:25:08;;;;;;;22.33;13.43;;;6.30;99.90;6.10;100564.00;;;;4935358;28;87966;-68
2021/10/29 06:30:04;;;;;;;21.97;12.87;;;6.20;99.90;6.10;100571.00;;;;4931520;28;87095;-66
2021/10/29 06:32:30;;;;;;;19.67;13.40;;;6.20;99.90;6.20;100577.00;;;;4934208;28;87824;-67
2021/10/29 06:34:56;;;;;;;21.37;14.43;;;6.30;99.90;6.30;100565.00;;;;4933537;28;118078;-67
2021/10/29 06:37:22;;;;;;;17.10;13.27;;;6.40;99.90;6.40;100560.00;;;;4948892;28;89259;-66
2021/10/29 06:39:49;;;;;;;15.70;12.37;;;6.40;99.90;6.60;100566.00;;;;4935239;28;87906;-67
2021/10/29 06:42:23;;;;;;;22.23;14.10;;;6.60;99.90;6.80;100571.00;;;;4934247;28;87941;-67
2021/10/29 06:45:10;;;;;;;24.10;14.27;;;6.80;99.90;7.10;100567.00;;;;4924496;28;88084;-68
2021/10/29 06:47:41;;;;;;;18.43;11.63;;;7.10;99.90;7.30;100570.00;;;;4934523;28;87776;-68
2021/10/29 06:59:13;;;;;;;22.07;15.03;;;7.50;99.90;7.80;100566.00;;;;4937937;28;87797;-68
2021/10/29 07:01:04;;;;;;;17.00;11.67;;;8.20;99.90;8.60;100573.00;;;;4934407;28;87703;-69
2021/10/29 07:12:07;;;;;;;18.47;12.90;;;9.10;99.90;9.30;100574.00;;;;4935566;28;87576;-67
2021/10/29 07:41:50;;;;;;;14.17;10.53;;;11.10;95.10;11.30;100581.00;;;;4935172;28;87739;-67
2021/10/29 07:44:18;;;;;;;15.93;10.60;;;11.30;94.30;11.40;100576.00;;;;4937578;28;87718;-67
2021/10/29 07:46:45;;;;;;;14.33;9.33;;;11.40;94.10;11.60;100587.00;;;;4936959;28;87889;-67
2021/10/29 07:49:12;;;;;;;17.47;11.20;;;11.50;93.50;11.70;100581.00;;;;4937758;28;87456;-66
2021/10/29 07:51:39;;;;;;;13.20;9.43;;;11.60;93.00;11.80;100589.00;;;;4935681;28;117302;-67
2021/10/29 07:54:06;;;;;;;17.10;10.80;;;11.80;92.40;11.90;100603.00;;;;4937923;28;87691;-67
2021/10/29 07:56:32;;;;;;;15.50;10.17;;;11.80;91.70;12.00;100582.00;;;;4935897;28;109663;-67
2021/10/29 07:58:58;;;;;;;16.70;11.43;;;11.90;90.40;12.10;100588.00;;;;4936858;28;88340;-67
2021/10/29 08:01:24;;;;;;;17.60;10.43;;;12.10;90.70;12.30;100591.00;;;;4935579;28;116772;-66
2021/10/29 08:03:49;;;;;;;11.50;9.53;;;12.20;90.60;12.50;100595.00;;;;4936039;28;87752;-67
2021/10/29 08:06:16;;;;;;;18.10;11.13;;;12.30;88.70;12.60;100598.00;;;;4936948;28;88183;-67
2021/10/29 08:08:41;;;;;;;17.50;11.03;;;12.50;88.30;12.70;100598.00;;;;4935759;28;118677;-67
2021/10/29 08:11:07;;;;;;;13.63;10.53;;;12.60;86.20;12.90;100605.00;;;;4936533;28;87760;-69
2021/10/29 08:13:33;;;;;;;22.10;12.07;;;12.70;84.90;13.00;100593.00;;;;4935907;28;105121;-67
2021/10/29 08:16:03;;;;;;;17.70;10.37;;;12.90;83.70;13.10;100593.00;;;;4936127;28;108713;-67
2021/10/29 08:18:30;;;;;;;12.33;10.10;;;12.90;84.10;13.20;100598.00;;;;4936740;28;87885;-67
2021/10/29 08:20:56;;;;;;;12.97;9.47;;;13.10;81.40;13.30;100596.00;;;;4936126;28;89644;-67
2021/10/29 08:23:21;;;;;;;15.60;10.33;;;13.20;80.60;13.50;100582.00;;;;4937695;28;87728;-68
2021/10/29 08:25:47;;;;;;;17.80;9.47;;;13.30;79.40;13.50;100600.00;;;;4936596;28;89815;-68
2021/10/29 08:28:13;;;;;;;12.70;9.77;;;13.40;78.40;13.60;100601.00;;;;4935735;28;117804;-68
2021/10/29 08:30:39;;;;;;;14.60;9.73;;;13.50;77.00;13.70;100600.00;;;;4936806;28;88798;-67
2021/10/29 08:33:05;;;;;;;15.87;9.57;;;13.60;77.40;13.80;100605.00;;;;4935677;28;110985;-68
2021/10/29 08:35:30;;;;;;;14.93;10.40;;;13.70;76.30;13.90;100599.00;;;;4952228;28;87702;-68
2021/10/29 08:37:56;;;;;;;11.70;8.90;;;13.80;75.50;14.00;100589.00;;;;4936289;28;88117;-68
2021/10/29 08:40:22;;;;;;;14.47;10.00;;;13.90;74.60;14.10;100597.00;;;;4937152;28;88204;-67
2021/10/29 08:42:49;;;;;;;13.07;9.63;;;14.00;73.40;14.20;100589.00;;;;4936597;28;87741;-68
2021/10/29 08:45:16;;;;;;;17.07;9.80;;;14.10;73.00;14.30;100588.00;;;;4936249;28;88823;-67
2021/10/29 08:47:43;;;;;;;14.27;9.67;;;14.10;72.30;14.40;100592.00;;;;4937052;28;88949;-68
2021/10/29 08:50:14;;;;;;;16.43;10.77;;;14.30;72.90;14.60;100598.00;;;;4936282;28;87905;-68
2021/10/29 08:52:47;;;;;;;13.13;9.13;;;14.40;72.00;14.80;100589.00;;;;4936131;28;87993;-68
2021/10/29 08:55:16;;;;;;;15.10;9.27;;;14.60;71.30;15.00;100581.00;;;;4951607;28;87880;-68
2021/10/29 08:57:47;;;;;;;16.27;10.27;;;14.80;69.70;15.10;100578.00;;;;4951987;28;88565;-68
2021/10/29 09:00:22;;;;;;;15.87;8.27;;;14.90;67.60;15.10;100580.00;;;;4935138;28;88510;-68
2021/10/29 09:03:01;;;;;;;14.67;10.57;;;14.90;68.00;15.20;100580.00;;;;4937474;28;86897;-67
2021/10/29 09:16:43;;;;;;;13.10;9.53;;;15.30;64.40;15.40;100565.00;;;;4934061;28;87774;-67
2021/10/29 09:33:03;;;;;;;14.55;9.18;;;16.20;63.70;16.80;100553.00;;;;4934498;28;88130;-67
2021/10/29 09:35:38;;;;;;;18.42;9.23;;;16.50;62.40;17.10;100552.00;;;;4936926;28;87814;-67
2021/10/29 09:38:12;;;;;;;12.55;8.93;;;16.70;60.20;17.10;100550.00;;;;4935709;28;88761;-68
2021/10/29 09:41:03;;;;;;;15.48;8.57;;;16.90;59.80;17.20;100551.00;;;;4934417;28;89245;-68
2021/10/29 09:43:36;;;;;;;8.80;7.65;;;17.00;58.40;17.30;100539.00;;;;4935469;28;87905;-67
2021/10/29 09:46:03;;;;;;;16.92;8.02;;;17.00;58.30;17.30;100548.00;;;;4936637;28;87703;-67
2021/10/29 09:51:07;;;;;;;11.73;8.30;;;17.20;57.90;17.50;100546.00;;;;4932342;28;87676;-72
2021/10/29 09:53:48;;;;;;;10.25;7.38;;;17.30;58.10;17.70;100550.00;;;;4935891;28;87492;-72
2021/10/29 09:56:42;;;;;;;12.18;7.35;;;17.40;56.90;17.80;100547.00;;;;4935838;28;87282;-72
2021/10/29 09:59:07;;;;;;;12.00;7.97;;;17.50;57.00;17.90;100543.00;;;;4932509;28;89186;-72
2021/10/29 10:01:33;;;;;;;12.95;8.10;;;17.60;56.10;17.80;100537.00;;;;4927791;28;88010;-72
2021/10/29 10:04:07;;;;;;;12.25;8.90;;;17.60;55.10;17.60;100538.00;;;;4935063;28;89293;-71
2021/10/29 10:06:40;;;;;;;7.40;6.55;;;17.50;55.20;17.50;100534.00;;;;4950148;28;108015;-71
2021/10/29 10:09:10;;;;;;;13.25;8.40;;;17.40;54.80;17.50;100537.00;;;;4950053;28;87794;-72
2021/10/29 10:11:42;;;;;;;12.50;8.00;;;17.30;55.30;17.40;100529.00;;;;4936140;28;88430;-74
2021/10/29 10:14:09;;;;;;;13.00;8.43;;;17.30;55.50;17.50;100536.00;;;;4935527;28;88306;-72
2021/10/29 10:16:38;;;;;;;13.25;9.20;;;17.30;55.70;17.60;100528.00;;;;4948949;28;87813;-73
2021/10/29 10:19:06;;;;;;;12.63;7.60;;;17.40;55.80;17.80;100524.00;;;;4935091;28;87779;-71
2021/10/29 10:21:40;;;;;;;11.88;7.65;;;17.50;56.10;18.10;100530.00;;;;4935855;28;87946;-70
2021/10/29 10:24:15;;;;;;;9.95;7.00;;;17.70;56.20;18.30;100535.00;;;;4935422;28;87835;-72
2021/10/29 10:27:15;;;;;;;12.20;8.57;;;18.00;55.20;18.40;100521.00;;;;4935997;28;87653;-71
2021/10/29 10:46:10;;;;;;;12.45;8.20;;;18.60;52.50;18.70;100524.00;;;;4936608;28;87960;-71
2021/10/29 10:51:49;;;;;;;11.05;7.32;;;18.60;53.00;18.90;100511.00;;;;4917760;28;87737;-72
2021/10/29 10:54:26;;;;;;;9.77;6.75;;;18.60;53.60;19.20;100511.00;;;;4922760;28;87593;-71
2021/10/29 10:57:15;;;;;;;11.43;8.60;;;18.80;53.90;19.50;100505.00;;;;4937630;28;89071;-71
2021/10/29 11:11:14;;;;;;;12.32;8.02;;;19.30;51.60;19.70;100493.00;;;;4935116;28;88134;-72
2021/10/29 11:13:43;;;;;;;10.63;6.90;;;19.40;51.80;19.80;100505.00;;;;4938450;28;88072;-73
2021/10/29 11:16:25;;;;;;;14.30;6.68;;;19.40;51.80;20.00;100496.00;;;;4938171;28;88097;-72
2021/10/29 11:19:18;;;;;;;13.13;6.88;;;19.60;51.90;20.00;100495.00;;;;4935973;28;90089;-73
2021/10/29 11:21:57;;;;;;;9.05;6.22;;;19.70;50.90;20.20;100485.00;;;;4952054;28;87630;-71
2021/10/29 11:24:36;;;;;;;11.73;6.70;;;19.80;50.90;20.20;100482.00;;;;4937991;28;89392;-72
2021/10/29 11:27:20;;;;;;;11.27;6.43;;;19.80;50.30;20.40;100482.00;;;;4938072;28;88769;-72
2021/10/29 11:29:51;;;;;;;15.43;8.75;;;20.20;50.60;20.60;100481.00;;;;4952079;28;87941;-71
2021/10/29 11:32:19;;;;;;;9.65;7.82;;;20.10;50.40;20.70;100480.00;;;;4938138;28;87845;-72
2021/10/29 11:34:49;;;;;;;7.22;6.35;;;20.30;50.00;20.70;100472.00;;;;4938326;28;87605;-72
2021/10/29 11:37:15;;;;;;;7.75;6.22;;;20.30;49.00;20.60;100465.00;;;;4936614;28;88898;-72
2021/10/29 11:39:41;;;;;;;11.07;5.95;;;20.30;49.10;20.30;100472.00;;;;4937585;28;87984;-71
2021/10/29 11:42:07;;;;;;;8.27;5.82;;;20.10;48.10;20.10;100465.00;;;;4937079;28;109727;-72
2021/10/29 11:44:38;;;;;;;9.07;7.75;;;19.80;48.60;20.00;100472.00;;;;4938142;28;88126;-72
2021/10/29 11:47:05;;;;;;;9.98;7.15;;;19.80;49.00;20.10;100463.00;;;;4934944;28;94611;-73
2021/10/29 11:49:31;;;;;;;9.48;7.13;;;19.80;49.50;20.40;100468.00;;;;4951892;28;88702;-72
2021/10/29 11:52:02;;;;;;;7.90;6.57;;;19.90;49.80;20.50;100463.00;;;;4937437;28;87801;-72
2021/10/29 11:54:32;;;;;;;9.05;6.05;;;20.10;48.80;20.60;100458.00;;;;4950985;28;88181;-72
2021/10/29 12:00:33;;;;;;;8.75;6.00;;;20.10;47.70;20.10;100445.00;;;;4936421;28;88119;-73
2021/10/29 12:08:23;;;;;;;8.30;6.85;;;19.90;49.10;20.20;100434.00;;;;4936820;28;87328;-73
2021/10/29 12:10:51;;;;;;;10.00;6.82;;;19.90;48.30;20.20;100419.00;;;;4936946;28;88066;-72
2021/10/29 12:13:17;;;;;;;10.98;7.38;;;19.90;48.60;20.10;100435.00;;;;4951851;28;87742;-72
2021/10/29 12:15:43;;;;;;;9.98;7.03;;;19.80;48.20;20.00;100429.00;;;;4937214;28;88732;-73
2021/10/29 12:18:10;;;;;;;9.88;6.80;;;19.70;48.00;19.90;100413.00;;;;4950839;28;116212;-71
2021/10/29 12:20:41;;;;;;;8.15;6.30;;;19.60;48.60;20.00;100410.00;;;;4936775;28;87817;-71
2021/10/29 12:23:21;;;;;;;9.38;6.63;;;19.60;49.10;20.10;100404.00;;;;4952140;28;87983;-71
2021/10/29 12:28:31;;;;;;;9.95;6.65;;;19.90;48.40;20.30;100405.00;;;;4933988;28;88045;-71
2021/10/29 13:01:27;;;;;;;9.30;6.15;;;19.10;48.80;19.10;100382.00;;;;4934112;28;87354;-73
2021/10/29 13:04:18;;;;;;;9.23;6.35;;;19.00;48.90;18.90;100367.00;;;;4936491;28;88051;-72
2021/10/29 13:06:52;;;;;;;12.07;6.45;;;18.80;49.10;18.90;100377.00;;;;4950651;28;87752;-73
2021/10/29 13:09:28;;;;;;;13.15;7.10;;;18.70;49.50;18.90;100379.00;;;;4949838;28;88834;-72
2021/10/29 13:12:53;;;;;;;7.80;5.28;;;18.60;49.30;18.80;100363.00;;;;4935786;28;88575;-73
2021/10/29 13:14:56;;;;;;;7.85;5.75;;;18.60;48.90;18.60;100365.00;;;;4935070;28;87974;-72
2021/10/29 13:17:31;;;;;;;13.38;7.45;;;18.40;48.70;18.50;100355.00;;;;4940849;28;87849;-72
2021/10/29 13:36:00;;;;;;;7.40;5.55;;;18.30;49.10;18.50;100349.00;;;;4929685;28;88761;-72